Downsville, Louisiana
Current Conditions -  °F | °C
As of 6:15 PM on Sunday 25 Jan 2015 (Local Time) from KRSN Reporting Station
Clear Clear  
Wind Chill: 59°   Ceiling: Unl
Heat Index: 59°   Visibility: 10mi
Dew Point: 32°   Wind: 6mph
Humidity: 36%   Direction: 290°WNW
Pressure: 29.97"   Gusts: NA
Location:  32.63°N, 92.41°W
Report Text: KRSN 260015Z AUTO 29005KT 10SM CLR 15/00 A2997 RMK AO2 T01490000
Loading
Personal Weather Stations






























Interactive Weather Map New forecast layout! Learn more

10-Day Weather Forecast

Advertisements
Track Severe Weather on mobile